Time;durP1;ratioP1;P1;durP2;ratioP2;P2;SDS_P1;SDS_P2;PMS_P1;PMS_P2;Temp;Humidity;BMP_temperature;BMP_pressure;BME280_temperature;BME280_humidity;BME280_pressure;Samples;Min_cycle;Max_cycle;Signal;HPM_P1;HPM_P2
2021/12/17 00:01:15;;;;;;;11.82;5.22;;;11.70;82.10;;;;;;5051736;28;20055;-69
2021/12/17 00:04:29;;;;;;;14.80;6.60;;;11.60;82.40;;;;;;5051431;28;20055;-70
2021/12/17 00:07:35;;;;;;;20.23;7.82;;;11.60;82.20;;;;;;5051245;28;20048;-70
2021/12/17 00:10:39;;;;;;;17.30;8.75;;;11.50;81.90;;;;;;5051894;28;20060;-69
2021/12/17 00:13:44;;;;;;;13.93;8.73;;;11.50;82.30;;;;;;5052058;28;20051;-69
2021/12/17 00:16:48;;;;;;;14.60;8.70;;;11.40;82.80;;;;;;5051567;28;20064;-70
2021/12/17 00:50:34;;;;;;;18.10;8.73;;;11.00;83.90;;;;;;5050397;28;20044;-69
2021/12/17 00:53:30;;;;;;;20.73;8.25;;;11.10;82.90;;;;;;5051398;28;20492;-69
2021/12/17 00:56:35;;;;;;;13.95;5.85;;;11.00;83.30;;;;;;5051238;28;20052;-69
2021/12/17 00:59:46;;;;;;;15.60;3.85;;;11.00;83.20;;;;;;5050958;28;20044;-69
2021/12/17 01:02:51;;;;;;;7.93;3.17;;;11.10;82.90;;;;;;5050626;28;20234;-69
2021/12/17 01:05:55;;;;;;;7.50;2.70;;;11.10;83.20;;;;;;5050412;28;20044;-69
2021/12/17 01:08:59;;;;;;;6.13;3.03;;;11.00;83.20;;;;;;5050269;28;20048;-69
2021/12/17 01:12:04;;;;;;;9.82;3.20;;;11.00;83.80;;;;;;5050286;28;20048;-69
2021/12/17 01:15:27;;;;;;;9.18;3.10;;;11.10;84.00;;;;;;5050202;28;20077;-69
2021/12/17 01:22:27;;;;;;;8.63;2.85;;;11.30;83.80;;;;;;5050607;28;20322;-69
2021/12/17 01:37:34;;;;;;;8.18;3.00;;;11.40;83.60;;;;;;5049484;28;20052;-69
2021/12/17 01:43:50;;;;;;;5.32;2.53;;;11.50;83.20;;;;;;5050602;28;20303;-69
2021/12/17 01:46:55;;;;;;;8.15;2.88;;;11.60;83.00;;;;;;5049948;28;20041;-69
2021/12/17 01:56:56;;;;;;;4.35;2.78;;;11.70;82.60;;;;;;5049542;28;20544;-69
2021/12/17 02:00:13;;;;;;;7.82;2.80;;;11.70;82.80;;;;;;5049311;28;20052;-69
2021/12/17 02:03:20;;;;;;;6.15;3.17;;;11.70;82.90;;;;;;5050155;28;20040;-69
2021/12/17 02:06:28;;;;;;;6.53;3.00;;;11.80;82.80;;;;;;5049346;28;20396;-69
2021/12/17 02:19:59;;;;;;;5.97;3.10;;;11.80;83.00;;;;;;5049646;28;20531;-69
2021/12/17 02:32:52;;;;;;;10.23;4.03;;;11.80;83.30;;;;;;5052596;28;20040;-69
2021/12/17 02:35:56;;;;;;;6.05;3.45;;;11.70;84.00;;;;;;5052833;28;20048;-69
2021/12/17 02:39:27;;;;;;;6.60;3.65;;;11.70;84.10;;;;;;5053029;28;20504;-69
2021/12/17 02:45:39;;;;;;;9.57;3.92;;;11.60;83.70;;;;;;5052653;28;20405;-69
2021/12/17 02:48:44;;;;;;;10.02;3.90;;;11.60;84.60;;;;;;5052918;28;20508;-69
2021/12/17 02:51:49;;;;;;;7.32;3.50;;;11.60;84.60;;;;;;5041254;28;20064;-70
2021/12/17 02:54:55;;;;;;;7.93;3.28;;;11.70;84.10;;;;;;5052773;28;20504;-70
2021/12/17 02:57:59;;;;;;;10.65;3.13;;;11.70;83.90;;;;;;5052566;28;20056;-69
2021/12/17 03:01:06;;;;;;;6.97;3.22;;;11.70;83.80;;;;;;5052412;28;20044;-69
2021/12/17 03:04:12;;;;;;;6.50;2.97;;;11.70;83.80;;;;;;5052719;28;20523;-69
2021/12/17 03:07:17;;;;;;;6.88;3.13;;;11.80;84.10;;;;;;5052347;28;20048;-69
2021/12/17 03:10:21;;;;;;;8.77;2.72;;;11.80;84.10;;;;;;5052449;28;20052;-69
2021/12/17 03:13:27;;;;;;;5.60;2.42;;;11.80;83.90;;;;;;5052979;28;20044;-69
2021/12/17 03:16:40;;;;;;;7.25;2.97;;;11.90;84.00;;;;;;5052959;28;20400;-69
2021/12/17 03:26:24;;;;;;;8.10;2.88;;;11.90;84.20;;;;;;5053039;28;20052;-70
2021/12/17 03:29:30;;;;;;;7.30;2.92;;;11.90;84.20;;;;;;5051831;28;20060;-69
2021/12/17 03:32:40;;;;;;;7.47;2.60;;;11.90;84.10;;;;;;5052293;28;20045;-69
2021/12/17 03:35:44;;;;;;;5.85;2.63;;;11.90;84.40;;;;;;5051594;28;20535;-69
2021/12/17 03:38:50;;;;;;;8.80;2.80;;;11.90;84.30;;;;;;5051645;28;20400;-69
2021/12/17 03:41:56;;;;;;;5.70;2.72;;;11.80;84.50;;;;;;5052634;28;20044;-69
2021/12/17 03:45:08;;;;;;;6.53;2.83;;;11.80;84.60;;;;;;5051614;28;20056;-70
2021/12/17 03:48:25;;;;;;;7.93;2.38;;;11.80;84.60;;;;;;5051548;28;20056;-71
2021/12/17 03:51:30;;;;;;;4.95;2.63;;;11.80;85.00;;;;;;5052106;28;20069;-70
2021/12/17 03:54:37;;;;;;;7.20;2.33;;;11.90;84.80;;;;;;5051560;28;20055;-69
2021/12/17 03:57:43;;;;;;;6.03;2.65;;;11.90;84.20;;;;;;5051330;28;20055;-69
2021/12/17 04:00:47;;;;;;;9.57;3.40;;;11.90;84.30;;;;;;5051380;28;20401;-69
2021/12/17 04:03:51;;;;;;;8.65;2.85;;;11.80;84.50;;;;;;5051042;28;20504;-69
2021/12/17 04:07:09;;;;;;;6.15;2.80;;;11.80;84.60;;;;;;5051276;28;20050;-70
2021/12/17 04:10:41;;;;;;;8.65;2.85;;;11.80;84.00;;;;;;5050879;28;20051;-70
2021/12/17 04:13:52;;;;;;;10.38;2.70;;;11.80;84.10;;;;;;5051327;28;20048;-69
2021/12/17 04:17:02;;;;;;;12.32;2.90;;;11.80;84.00;;;;;;5050957;28;20052;-69
2021/12/17 04:20:07;;;;;;;5.70;2.70;;;11.80;84.20;;;;;;5051069;28;20048;-69
2021/12/17 04:23:10;;;;;;;5.45;2.42;;;11.80;84.40;;;;;;5051202;28;20044;-69
2021/12/17 04:26:16;;;;;;;6.63;2.42;;;11.80;84.40;;;;;;5050903;28;20516;-69
2021/12/17 04:29:21;;;;;;;4.35;2.60;;;11.80;84.00;;;;;;5050836;28;20393;-69
2021/12/17 04:32:26;;;;;;;3.72;2.35;;;11.80;84.10;;;;;;5050696;28;20071;-69
2021/12/17 04:35:31;;;;;;;8.55;2.55;;;11.80;84.20;;;;;;5050908;28;20048;-69
2021/12/17 04:38:40;;;;;;;5.43;2.40;;;11.80;84.10;;;;;;5050477;28;20064;-69
2021/12/17 04:45:00;;;;;;;7.07;2.45;;;11.80;83.40;;;;;;5050436;28;20412;-69
2021/12/17 04:58:19;;;;;;;7.50;2.70;;;11.80;83.30;;;;;;5050239;28;20055;-69
2021/12/17 05:01:23;;;;;;;6.63;2.35;;;11.80;83.20;;;;;;5050980;28;20040;-69
2021/12/17 05:04:28;;;;;;;4.85;2.05;;;11.80;82.60;;;;;;5050330;28;20052;-69
2021/12/17 05:07:35;;;;;;;8.15;2.13;;;11.70;82.40;;;;;;5050237;28;20044;-69
2021/12/17 05:20:46;;;;;;;6.70;1.90;;;11.70;81.80;;;;;;5050037;28;20044;-69
2021/12/17 05:23:51;;;;;;;10.48;2.40;;;11.70;81.30;;;;;;5050202;28;20436;-70
2021/12/17 05:26:57;;;;;;;5.90;2.45;;;11.80;81.40;;;;;;5050045;28;20508;-69
2021/12/17 05:30:04;;;;;;;8.32;2.30;;;11.70;81.30;;;;;;5049686;28;20047;-70
2021/12/17 05:33:09;;;;;;;5.35;1.90;;;11.70;81.40;;;;;;5038108;28;20052;-70
2021/12/17 05:36:13;;;;;;;7.85;2.30;;;11.70;81.40;;;;;;5049748;28;20047;-70
2021/12/17 05:39:27;;;;;;;8.73;1.83;;;11.70;81.60;;;;;;5049757;28;20051;-69
2021/12/17 05:42:33;;;;;;;7.65;1.80;;;11.70;81.80;;;;;;5038257;28;20542;-69
2021/12/17 05:46:08;;;;;;;5.63;1.85;;;11.70;81.80;;;;;;5049667;28;20052;-70
2021/12/17 05:49:12;;;;;;;7.90;2.65;;;11.70;81.90;;;;;;5049522;28;20036;-69
2021/12/17 05:52:16;;;;;;;3.53;1.70;;;11.60;82.10;;;;;;5049379;28;20052;-69
2021/12/17 05:55:20;;;;;;;7.40;2.63;;;11.60;82.20;;;;;;5049611;28;20048;-69
2021/12/17 05:58:26;;;;;;;5.82;2.70;;;11.60;82.30;;;;;;5049318;28;20064;-69
2021/12/17 06:01:31;;;;;;;11.48;2.17;;;11.50;82.30;;;;;;5049861;28;20040;-69
2021/12/17 06:04:36;;;;;;;5.80;2.67;;;11.50;82.40;;;;;;5049609;28;20397;-70
2021/12/17 06:07:42;;;;;;;6.22;2.58;;;11.50;82.70;;;;;;5054204;28;20064;-70
2021/12/17 06:10:47;;;;;;;5.50;2.35;;;11.50;82.60;;;;;;5053591;28;20039;-70
2021/12/17 06:13:51;;;;;;;8.90;2.53;;;11.50;82.50;;;;;;5053373;28;20408;-70
2021/12/17 06:16:55;;;;;;;6.07;2.20;;;11.50;82.30;;;;;;5053394;28;20048;-69
2021/12/17 06:20:07;;;;;;;;;;;11.50;82.40;;;;;;5041821;28;20040;-70
2021/12/17 06:23:13;;;;;;;3.35;1.95;;;11.50;82.50;;;;;;5053415;28;19908;-70
2021/12/17 06:26:18;;;;;;;4.72;2.25;;;11.50;82.60;;;;;;5053329;28;20048;-70
2021/12/17 06:29:23;;;;;;;7.78;2.80;;;11.60;82.40;;;;;;5053019;28;20048;-70
2021/12/17 06:32:34;;;;;;;6.80;2.17;;;11.60;82.50;;;;;;5053041;28;20036;-69
2021/12/17 06:35:39;;;;;;;5.47;2.22;;;11.60;82.40;;;;;;5053236;28;20052;-69
2021/12/17 06:38:44;;;;;;;5.18;2.20;;;11.50;82.50;;;;;;5053054;28;20099;-70
2021/12/17 06:41:48;;;;;;;5.20;2.38;;;11.60;82.70;;;;;;5053013;28;20048;-70
2021/12/17 06:44:57;;;;;;;7.72;2.10;;;11.60;82.40;;;;;;5052723;28;20055;-69
2021/12/17 06:48:01;;;;;;;8.32;2.53;;;11.60;82.30;;;;;;5053021;28;20040;-70
2021/12/17 07:22:42;;;;;;;4.90;2.00;;;12.20;82.10;;;;;;5053051;28;20052;-70
2021/12/17 07:36:18;;;;;;;4.90;1.70;;;12.40;81.60;;;;;;5051503;28;20037;-65
2021/12/17 07:39:22;;;;;;;8.73;2.10;;;12.40;81.70;;;;;;5051262;28;20071;-64
2021/12/17 07:42:32;;;;;;;9.45;2.50;;;12.50;81.70;;;;;;5051906;28;20044;-63
2021/12/17 07:45:37;;;;;;;4.20;2.13;;;12.50;81.70;;;;;;5052995;28;20048;-67
2021/12/17 07:48:45;;;;;;;4.63;1.85;;;12.50;82.10;;;;;;5051151;28;20044;-65
2021/12/17 07:51:49;;;;;;;8.48;2.35;;;12.50;81.50;;;;;;5051743;28;20040;-65
2021/12/17 07:54:57;;;;;;;6.72;2.50;;;12.60;81.70;;;;;;5051323;28;20052;-66
2021/12/17 07:58:00;;;;;;;6.72;2.17;;;12.60;82.00;;;;;;5051961;28;20047;-66
2021/12/17 08:01:11;;;;;;;6.40;2.05;;;12.60;82.30;;;;;;5051278;28;20107;-66
2021/12/17 08:04:16;;;;;;;5.30;2.60;;;12.70;81.60;;;;;;5051363;28;20052;-66
2021/12/17 08:07:32;;;;;;;9.15;1.98;;;12.70;81.40;;;;;;5051898;28;20073;-66
2021/12/17 08:10:37;;;;;;;12.15;2.25;;;12.70;80.70;;;;;;5051304;28;20060;-67
2021/12/17 08:13:43;;;;;;;8.30;3.08;;;12.70;81.10;;;;;;5051190;28;20060;-66
2021/12/17 08:33:24;;;;;;;9.30;2.25;;;13.30;79.70;;;;;;5050767;28;20457;-68
2021/12/17 08:36:31;;;;;;;6.45;2.28;;;13.40;78.70;;;;;;5050860;28;20056;-68
2021/12/17 08:39:37;;;;;;;5.07;2.30;;;13.60;79.00;;;;;;5050660;28;20048;-68
2021/12/17 08:43:14;;;;;;;9.25;2.78;;;13.70;77.80;;;;;;5051131;28;20052;-67
2021/12/17 08:46:23;;;;;;;6.55;2.47;;;13.80;77.20;;;;;;5050825;28;20499;-68
2021/12/17 08:49:30;;;;;;;5.60;2.67;;;13.90;77.40;;;;;;5051424;28;20040;-68
2021/12/17 08:52:49;;;;;;;11.00;2.80;;;14.00;77.00;;;;;;5050463;28;20401;-66
2021/12/17 08:55:55;;;;;;;10.00;3.60;;;14.30;76.60;;;;;;5050674;28;20047;-66
2021/12/17 08:59:06;;;;;;;11.75;3.47;;;14.40;76.40;;;;;;5050420;28;20044;-67
2021/12/17 09:02:41;;;;;;;7.18;2.47;;;14.70;75.80;;;;;;5051685;28;20421;-67
2021/12/17 09:06:09;;;;;;;5.80;2.00;;;14.70;74.90;;;;;;5050350;28;20052;-67
2021/12/17 09:09:21;;;;;;;4.63;1.80;;;14.80;73.40;;;;;;5050332;28;20040;-66
2021/12/17 09:12:25;;;;;;;9.15;1.95;;;14.90;73.00;;;;;;5050290;28;20056;-66
2021/12/17 09:15:32;;;;;;;3.97;1.98;;;14.90;73.40;;;;;;5050410;28;20418;-67
2021/12/17 09:18:52;;;;;;;7.32;1.75;;;15.00;72.60;;;;;;5049918;28;20055;-66
2021/12/17 09:22:22;;;;;;;5.88;1.90;;;15.10;72.90;;;;;;5051052;28;20092;-66
2021/12/17 09:25:30;;;;;;;5.72;1.70;;;15.00;72.60;;;;;;5050220;28;20048;-67
2021/12/17 09:28:38;;;;;;;5.10;1.60;;;15.00;72.70;;;;;;5050016;28;20524;-67
2021/12/17 09:31:42;;;;;;;6.25;1.85;;;15.10;72.30;;;;;;5050594;28;20060;-67
2021/12/17 09:34:46;;;;;;;4.70;2.00;;;15.20;72.40;;;;;;5050587;28;20047;-65
2021/12/17 09:37:51;;;;;;;4.30;1.75;;;15.20;72.30;;;;;;5050471;28;20060;-67
2021/12/17 09:40:55;;;;;;;4.43;2.00;;;15.10;72.60;;;;;;5054421;28;20052;-68
2021/12/17 09:43:59;;;;;;;7.22;2.20;;;15.20;72.80;;;;;;5057310;28;20051;-66
2021/12/17 09:47:04;;;;;;;5.28;2.28;;;15.30;72.30;;;;;;5057611;28;20405;-67
2021/12/17 09:50:09;;;;;;;4.80;2.20;;;15.60;72.20;;;;;;5057183;28;20048;-68
2021/12/17 09:53:13;;;;;;;6.32;2.00;;;15.70;71.80;;;;;;5056547;28;20048;-68
2021/12/17 09:56:17;;;;;;;8.00;2.00;;;15.60;71.00;;;;;;5057114;28;20044;-67
2021/12/17 09:59:21;;;;;;;6.53;2.70;;;15.70;71.40;;;;;;5057081;28;20116;-67
2021/12/17 10:02:25;;;;;;;5.72;2.30;;;15.50;71.70;;;;;;5057505;28;20048;-67
2021/12/17 10:05:32;;;;;;;4.22;2.20;;;15.50;72.20;;;;;;5057120;28;20401;-67
2021/12/17 10:08:47;;;;;;;4.10;2.30;;;15.50;72.30;;;;;;5057339;28;20056;-68
2021/12/17 10:12:06;;;;;;;6.70;2.65;;;15.60;72.70;;;;;;5056975;28;20048;-69
2021/12/17 10:15:14;;;;;;;5.57;3.60;;;15.70;71.80;;;;;;5057302;28;20503;-67
2021/12/17 10:18:41;;;;;;;6.28;2.30;;;15.90;72.00;;;;;;5056913;28;20052;-68
2021/12/17 10:21:46;;;;;;;5.18;2.63;;;15.90;71.40;;;;;;5057181;28;20243;-68
2021/12/17 10:25:16;;;;;;;5.35;2.63;;;15.80;71.00;;;;;;5056792;28;20048;-68
2021/12/17 10:28:21;;;;;;;4.85;2.60;;;15.80;72.30;;;;;;5056787;28;20520;-67
2021/12/17 10:31:26;;;;;;;9.85;3.08;;;15.90;71.70;;;;;;5057004;28;20576;-68
2021/12/17 10:34:29;;;;;;;7.55;2.97;;;16.00;71.00;;;;;;5056586;28;20044;-68
2021/12/17 10:37:43;;;;;;;6.60;3.00;;;16.10;71.20;;;;;;5056495;28;20060;-69
2021/12/17 10:41:09;;;;;;;5.47;2.38;;;16.00;71.10;;;;;;5056644;28;20048;-70
2021/12/17 10:44:13;;;;;;;10.75;3.15;;;16.10;70.80;;;;;;5056613;28;20044;-69
2021/12/17 10:47:31;;;;;;;6.60;2.55;;;16.00;71.30;;;;;;5056486;28;20044;-69
2021/12/17 10:50:36;;;;;;;6.78;2.00;;;16.10;70.20;;;;;;5055797;28;20116;-69
2021/12/17 10:53:54;;;;;;;5.28;2.50;;;16.10;70.30;;;;;;5052766;28;20504;-69
2021/12/17 10:56:57;;;;;;;8.57;2.70;;;16.10;70.60;;;;;;5053256;28;20116;-69
2021/12/17 11:00:05;;;;;;;4.70;2.08;;;16.20;70.80;;;;;;5053265;28;20051;-69
2021/12/17 11:03:09;;;;;;;9.00;3.05;;;16.10;69.80;;;;;;5053498;28;20048;-69
2021/12/17 11:06:13;;;;;;;5.25;2.30;;;16.00;70.80;;;;;;5053249;28;20056;-69
2021/12/17 11:09:45;;;;;;;4.20;2.50;;;15.80;70.90;;;;;;5053481;28;20044;-70
2021/12/17 11:12:49;;;;;;;;;;;15.80;71.40;;;;;;5053184;28;20048;-67
2021/12/17 11:15:54;;;;;;;5.50;2.47;;;15.90;70.50;;;;;;5053284;28;19916;-68
2021/12/17 11:18:58;;;;;;;5.85;2.38;;;15.80;71.30;;;;;;5052585;28;20572;-68
2021/12/17 11:22:02;;;;;;;5.50;2.30;;;15.80;70.50;;;;;;5052946;28;20036;-67
2021/12/17 11:25:06;;;;;;;5.07;1.92;;;15.80;70.30;;;;;;5052802;28;20515;-69
2021/12/17 11:28:11;;;;;;;9.10;2.50;;;15.70;70.50;;;;;;5052994;28;20040;-68
2021/12/17 11:31:15;;;;;;;5.55;2.65;;;15.80;70.30;;;;;;5052893;28;20048;-68
2021/12/17 11:34:20;;;;;;;5.85;2.33;;;15.90;70.90;;;;;;5052269;28;20060;-67
2021/12/17 11:37:25;;;;;;;10.88;3.33;;;15.80;71.00;;;;;;5052591;28;20433;-69
2021/12/17 11:40:40;;;;;;;6.43;2.70;;;15.80;71.70;;;;;;5052106;28;20287;-68
2021/12/17 11:44:08;;;;;;;5.97;2.72;;;15.80;70.70;;;;;;5052700;28;20515;-68
2021/12/17 11:47:12;;;;;;;7.72;2.63;;;15.70;70.60;;;;;;5052348;28;20393;-69
2021/12/17 11:50:18;;;;;;;5.72;2.50;;;15.70;70.80;;;;;;5052220;28;20244;-67
2021/12/17 11:53:24;;;;;;;5.30;2.10;;;15.70;70.60;;;;;;5052497;28;20393;-67
2021/12/17 11:56:52;;;;;;;3.50;2.00;;;15.70;70.00;;;;;;5052169;28;20207;-67
2021/12/17 11:59:56;;;;;;;3.33;1.92;;;15.60;70.10;;;;;;5051928;28;20392;-68
2021/12/17 12:03:19;;;;;;;4.00;2.10;;;15.70;70.50;;;;;;5051038;28;20044;-67
2021/12/17 12:06:34;;;;;;;5.55;1.65;;;15.70;70.70;;;;;;5052289;28;20036;-67
2021/12/17 12:09:56;;;;;;;2.85;1.83;;;15.80;69.70;;;;;;5051714;28;20056;-67
2021/12/17 12:13:01;;;;;;;4.75;2.20;;;15.80;69.60;;;;;;5052248;28;20283;-67
2021/12/17 12:16:06;;;;;;;3.75;1.77;;;15.90;70.00;;;;;;5052026;28;20048;-68
2021/12/17 12:19:20;;;;;;;4.55;2.03;;;16.00;69.70;;;;;;5050922;28;20063;-66
2021/12/17 12:22:31;;;;;;;5.63;2.25;;;16.10;69.40;;;;;;5051906;28;20162;-68
2021/12/17 12:25:35;;;;;;;5.57;1.90;;;16.10;68.80;;;;;;5051707;28;20052;-67
2021/12/17 12:28:45;;;;;;;4.32;1.85;;;16.10;68.90;;;;;;5051584;28;20044;-68
2021/12/17 12:31:53;;;;;;;4.53;2.65;;;16.10;68.80;;;;;;5051468;28;20052;-67
2021/12/17 12:35:07;;;;;;;3.42;2.28;;;16.10;68.10;;;;;;5051338;28;20048;-68
2021/12/17 12:38:20;;;;;;;5.57;2.45;;;16.10;68.60;;;;;;5051517;28;20068;-68
2021/12/17 12:41:39;;;;;;;7.00;2.58;;;16.10;68.70;;;;;;5051385;28;20044;-68
2021/12/17 12:44:46;;;;;;;3.42;2.10;;;16.10;69.20;;;;;;5051636;28;20048;-68
2021/12/17 12:47:55;;;;;;;5.32;1.80;;;16.10;68.30;;;;;;5051300;28;20504;-66
2021/12/17 12:51:14;;;;;;;3.25;1.50;;;16.10;66.70;;;;;;5051427;28;20534;-66
2021/12/17 12:54:22;;;;;;;7.25;2.08;;;16.10;67.50;;;;;;5050892;28;20396;-67
2021/12/17 12:57:34;;;;;;;19.98;9.38;;;16.10;68.70;;;;;;5050980;28;20048;-66
2021/12/17 13:00:47;;;;;;;9.55;4.28;;;16.10;69.30;;;;;;5051054;28;20047;-66
2021/12/17 13:03:51;;;;;;;3.65;2.20;;;16.10;68.90;;;;;;5051189;28;20060;-66
2021/12/17 13:06:55;;;;;;;6.25;2.03;;;16.10;68.70;;;;;;5051114;28;20051;-66
2021/12/17 13:10:09;;;;;;;4.50;2.50;;;16.10;69.00;;;;;;5051062;28;20048;-66
2021/12/17 13:13:20;;;;;;;5.10;3.22;;;16.10;69.70;;;;;;5051125;28;20044;-66
2021/12/17 13:16:43;;;;;;;6.07;3.08;;;16.00;70.10;;;;;;5050987;28;20040;-66
2021/12/17 13:23:18;;;;;;;6.53;2.45;;;16.10;70.20;;;;;;5050885;28;20119;-66
2021/12/17 13:26:24;;;;;;;5.20;2.60;;;16.00;69.90;;;;;;5050926;28;20052;-68
2021/12/17 13:29:31;;;;;;;6.20;3.03;;;16.10;69.90;;;;;;5049679;28;20071;-68
2021/12/17 13:32:43;;;;;;;6.45;3.33;;;16.00;70.10;;;;;;5050633;28;20067;-65
2021/12/17 13:35:47;;;;;;;4.57;2.58;;;16.00;70.10;;;;;;5050881;28;20048;-68
2021/12/17 13:38:58;;;;;;;5.63;2.40;;;16.00;70.30;;;;;;5050494;28;20397;-68
2021/12/17 13:42:03;;;;;;;5.72;2.60;;;16.00;70.60;;;;;;5050871;28;20048;-68
2021/12/17 13:45:15;;;;;;;3.08;2.17;;;16.00;71.10;;;;;;5050666;28;20060;-65
2021/12/17 13:48:19;;;;;;;4.32;2.13;;;15.90;70.80;;;;;;5050322;28;20048;-68
2021/12/17 13:51:23;;;;;;;8.43;2.90;;;15.90;67.90;;;;;;5050458;28;20075;-68
2021/12/17 13:54:28;;;;;;;14.85;2.50;;;15.90;67.90;;;;;;5050883;28;20044;-68
2021/12/17 13:57:33;;;;;;;4.25;2.00;;;15.90;67.20;;;;;;5050728;28;20044;-68
2021/12/17 14:00:43;;;;;;;6.63;2.30;;;15.90;67.80;;;;;;5050362;28;20052;-67
2021/12/17 14:03:47;;;;;;;3.80;2.08;;;15.90;67.80;;;;;;5050338;28;20392;-67
2021/12/17 14:06:53;;;;;;;4.95;1.83;;;15.90;67.80;;;;;;5050307;28;20059;-68
2021/12/17 14:10:09;;;;;;;3.50;2.40;;;15.90;67.10;;;;;;5049350;28;20044;-67
2021/12/17 14:13:20;;;;;;;5.00;2.22;;;15.90;67.80;;;;;;5050445;28;20099;-68
2021/12/17 14:16:33;;;;;;;5.60;3.30;;;15.90;67.90;;;;;;5050508;28;20048;-68
2021/12/17 14:19:39;;;;;;;5.43;2.70;;;15.80;68.30;;;;;;5050605;28;20052;-68
2021/12/17 14:22:45;;;;;;;6.03;2.88;;;15.80;68.80;;;;;;5050550;28;20047;-68
2021/12/17 14:25:57;;;;;;;6.93;3.33;;;15.80;69.00;;;;;;5050054;28;20501;-68
2021/12/17 14:29:10;;;;;;;4.95;2.40;;;15.80;68.30;;;;;;5054085;28;20385;-68
2021/12/17 14:32:18;;;;;;;3.50;2.47;;;15.70;68.40;;;;;;5053492;28;20055;-68
2021/12/17 14:35:46;;;;;;;4.10;2.50;;;15.70;68.80;;;;;;5054171;28;20523;-68
2021/12/17 14:39:00;;;;;;;7.25;2.58;;;15.70;69.30;;;;;;5053710;28;20527;-67
2021/12/17 14:42:06;;;;;;;5.18;2.65;;;15.60;69.60;;;;;;5053917;28;20074;-68
2021/12/17 14:45:16;;;;;;;6.32;2.70;;;15.60;68.50;;;;;;5053868;28;20044;-68
2021/12/17 14:48:31;;;;;;;7.70;3.60;;;15.60;68.50;;;;;;5053757;28;20405;-68
2021/12/17 15:00:14;;;;;;;3.97;2.70;;;15.40;68.50;;;;;;5053014;28;20056;-68
2021/12/17 15:02:03;;;;;;;9.93;3.42;;;15.40;68.40;;;;;;5056337;28;20389;-68
2021/12/17 15:05:08;;;;;;;6.10;2.90;;;15.40;69.20;;;;;;5053688;28;20056;-67
2021/12/17 15:08:11;;;;;;;4.15;2.08;;;15.30;69.20;;;;;;5052887;28;20377;-67
2021/12/17 15:11:26;;;;;;;7.65;3.28;;;15.30;68.70;;;;;;5053308;28;20104;-68
2021/12/17 15:14:30;;;;;;;9.40;3.45;;;15.30;69.00;;;;;;5053075;28;20060;-67
2021/12/17 15:17:35;;;;;;;16.17;3.80;;;15.20;69.60;;;;;;5052825;28;20116;-67
2021/12/17 15:20:41;;;;;;;14.30;5.03;;;15.20;70.80;;;;;;5052921;28;20052;-68
2021/12/17 15:23:45;;;;;;;17.25;5.97;;;15.20;71.90;;;;;;5053294;28;20044;-69
2021/12/17 15:26:49;;;;;;;22.23;7.38;;;15.20;72.70;;;;;;5053155;28;20056;-70
2021/12/17 15:29:53;;;;;;;22.35;7.93;;;15.10;76.20;;;;;;5053080;28;20044;-69
2021/12/17 15:32:58;;;;;;;16.52;6.43;;;15.00;77.80;;;;;;5052560;28;20436;-69
2021/12/17 15:36:03;;;;;;;19.50;7.10;;;14.90;78.40;;;;;;5052729;28;20064;-69
2021/12/17 15:39:07;;;;;;;14.07;6.57;;;14.80;77.30;;;;;;5051946;28;20072;-69
2021/12/17 15:42:11;;;;;;;12.43;6.95;;;14.70;76.40;;;;;;5052506;28;20040;-67
2021/12/17 15:45:19;;;;;;;15.10;7.32;;;14.70;78.00;;;;;;5052282;28;20056;-67
2021/12/17 15:48:25;;;;;;;32.88;16.45;;;14.60;79.20;;;;;;5052583;28;20044;-68
2021/12/17 15:51:30;;;;;;;31.52;17.83;;;14.50;79.70;;;;;;5052402;28;20055;-68
2021/12/17 15:54:35;;;;;;;20.95;9.38;;;14.50;80.30;;;;;;5052417;28;20048;-68
2021/12/17 15:57:40;;;;;;;17.58;9.25;;;14.40;79.80;;;;;;5052052;28;20408;-67
2021/12/17 16:00:44;;;;;;;14.57;8.32;;;14.40;79.20;;;;;;5052065;28;20056;-65
2021/12/17 16:03:48;;;;;;;19.83;11.65;;;14.40;79.60;;;;;;5052251;28;20060;-67
2021/12/17 16:06:52;;;;;;;21.65;12.80;;;14.40;78.70;;;;;;5051748;28;20052;-66
2021/12/17 16:23:10;;;;;;;21.70;11.35;;;14.20;79.20;;;;;;5051634;28;20047;-66
2021/12/17 16:26:16;;;;;;;14.65;9.25;;;14.10;79.70;;;;;;5051535;28;20503;-66
2021/12/17 16:29:21;;;;;;;15.63;9.70;;;14.10;79.20;;;;;;5051260;28;20048;-66
2021/12/17 16:32:26;;;;;;;28.15;14.00;;;14.10;79.40;;;;;;5050896;28;20079;-66
2021/12/17 16:35:30;;;;;;;31.98;14.27;;;14.10;79.90;;;;;;5051023;28;20035;-66
2021/12/17 16:38:35;;;;;;;24.30;13.07;;;14.00;80.30;;;;;;5050722;28;20428;-67
2021/12/17 16:41:39;;;;;;;32.60;18.63;;;14.00;80.30;;;;;;5051107;28;20397;-67
2021/12/17 16:45:18;;;;;;;32.55;17.45;;;13.90;79.60;;;;;;5050547;28;20385;-68
2021/12/17 16:48:15;;;;;;;14.05;7.53;;;13.90;80.00;;;;;;5051382;28;20052;-68
2021/12/17 16:51:20;;;;;;;10.55;7.47;;;14.00;77.50;;;;;;5050184;28;20517;-67
2021/12/17 16:54:25;;;;;;;12.07;8.05;;;14.00;76.70;;;;;;5050990;28;20068;-67
2021/12/17 16:57:29;;;;;;;17.63;8.38;;;13.90;75.00;;;;;;5051026;28;20496;-67
2021/12/17 17:00:33;;;;;;;9.15;4.68;;;13.90;74.30;;;;;;5050939;28;20401;-66
2021/12/17 17:03:37;;;;;;;7.60;4.18;;;14.00;69.70;;;;;;5050767;28;20044;-66
2021/12/17 17:06:41;;;;;;;6.25;4.43;;;14.00;68.30;;;;;;5050866;28;20060;-68
2021/12/17 17:09:45;;;;;;;9.48;5.25;;;14.00;68.90;;;;;;5050583;28;20052;-67
2021/12/17 17:12:50;;;;;;;9.85;5.55;;;13.90;69.90;;;;;;5050865;28;20052;-66
2021/12/17 17:15:56;;;;;;;12.27;4.93;;;13.90;69.90;;;;;;5050752;28;20052;-66
2021/12/17 17:19:00;;;;;;;12.15;5.25;;;13.90;70.20;;;;;;5050483;28;20075;-67
2021/12/17 17:22:05;;;;;;;10.65;5.43;;;13.90;68.40;;;;;;5050271;28;20044;-67
2021/12/17 17:25:09;;;;;;;9.90;5.45;;;13.80;68.40;;;;;;5050175;28;20056;-67
2021/12/17 17:28:13;;;;;;;11.05;5.90;;;13.80;68.00;;;;;;5050450;28;20036;-67
2021/12/17 17:31:17;;;;;;;11.43;6.20;;;13.70;68.50;;;;;;5050104;28;20044;-66
2021/12/17 17:34:22;;;;;;;18.23;11.30;;;13.70;68.00;;;;;;5050069;28;20060;-67
2021/12/17 17:37:28;;;;;;;35.22;18.92;;;13.70;67.20;;;;;;5050451;28;20044;-67
2021/12/17 17:40:35;;;;;;;28.63;17.17;;;13.70;67.50;;;;;;5049475;28;20052;-67
2021/12/17 17:43:39;;;;;;;20.85;10.10;;;13.70;66.70;;;;;;5050555;28;20412;-67
2021/12/17 17:46:43;;;;;;;34.88;20.23;;;13.70;67.00;;;;;;5050822;28;20059;-67
2021/12/17 17:49:48;;;;;;;25.92;15.50;;;13.70;66.90;;;;;;5050440;28;20389;-68
2021/12/17 17:52:52;;;;;;;27.38;16.80;;;13.60;67.40;;;;;;5050547;28;20504;-70
2021/12/17 17:55:56;;;;;;;15.48;10.02;;;13.50;67.80;;;;;;5049408;28;20055;-70
2021/12/17 17:59:00;;;;;;;26.95;14.85;;;13.50;67.20;;;;;;5050219;28;20060;-70
2021/12/17 18:02:04;;;;;;;27.33;16.60;;;13.50;67.50;;;;;;5052609;28;20111;-68
2021/12/17 18:05:12;;;;;;;34.53;19.65;;;13.40;66.70;;;;;;5054270;28;20056;-70
2021/12/17 18:08:16;;;;;;;22.25;14.88;;;13.30;66.40;;;;;;5054049;28;20048;-68
2021/12/17 18:11:20;;;;;;;22.63;13.20;;;13.40;67.00;;;;;;5052579;28;20052;-70
2021/12/17 18:14:24;;;;;;;26.40;14.52;;;13.30;67.80;;;;;;5054020;28;20055;-70
2021/12/17 18:17:28;;;;;;;19.40;10.35;;;13.30;68.50;;;;;;5054004;28;20052;-69
2021/12/17 18:20:32;;;;;;;25.85;13.32;;;13.20;68.00;;;;;;5054002;28;20052;-69
2021/12/17 18:23:36;;;;;;;22.88;11.63;;;13.20;68.30;;;;;;5054334;28;20052;-69
2021/12/17 18:26:40;;;;;;;30.33;14.68;;;13.20;68.10;;;;;;5053813;28;20064;-69
2021/12/17 18:29:44;;;;;;;20.83;11.20;;;13.10;69.20;;;;;;5053456;28;20086;-69
2021/12/17 18:32:53;;;;;;;28.40;13.25;;;13.10;68.50;;;;;;5053659;28;20052;-69
2021/12/17 18:35:57;;;;;;;24.98;14.00;;;13.10;68.00;;;;;;5053380;28;20044;-69
2021/12/17 18:39:02;;;;;;;27.08;14.65;;;13.00;68.80;;;;;;5053557;28;20421;-69
2021/12/17 18:45:30;;;;;;;37.28;19.83;;;12.70;70.80;;;;;;5053679;28;20116;-69
2021/12/17 18:48:34;;;;;;;42.72;16.42;;;12.50;71.70;;;;;;5053343;28;20516;-69
2021/12/17 18:51:39;;;;;;;25.25;14.32;;;12.50;73.10;;;;;;5053592;28;20608;-69
2021/12/17 18:54:43;;;;;;;27.90;12.55;;;12.30;74.00;;;;;;5053445;28;20052;-69
2021/12/17 18:57:47;;;;;;;33.20;18.17;;;12.20;74.60;;;;;;5053030;28;20044;-69
2021/12/17 19:00:52;;;;;;;59.03;34.28;;;12.10;75.30;;;;;;5053077;28;20128;-68
2021/12/17 19:03:56;;;;;;;50.08;30.63;;;12.10;75.40;;;;;;5053475;28;20048;-68
2021/12/17 19:07:00;;;;;;;54.72;33.28;;;12.10;74.70;;;;;;5052919;28;20040;-68
2021/12/17 19:10:05;;;;;;;58.58;34.72;;;12.20;74.90;;;;;;5052783;28;20048;-68
2021/12/17 19:13:09;;;;;;;55.65;31.92;;;12.20;74.90;;;;;;5051600;28;20044;-69
2021/12/17 19:16:15;;;;;;;49.05;28.42;;;12.20;75.00;;;;;;5053905;28;20063;-69
2021/12/17 19:19:37;;;;;;;49.50;27.15;;;12.20;75.70;;;;;;5052884;28;20052;-69
2021/12/17 19:22:41;;;;;;;50.70;26.05;;;12.20;75.40;;;;;;5053018;28;20314;-68
2021/12/17 19:25:45;;;;;;;46.72;23.65;;;12.20;75.20;;;;;;5053488;28;20048;-69
2021/12/17 19:28:49;;;;;;;40.05;20.92;;;12.20;75.20;;;;;;5052670;28;20123;-69